sensor_id;sensor_type;location;lat;lon;timestamp;pressure;altitude;pressure_sealevel;temperature;humidity
39793;BME280;26080;42.264;24.536;2023-01-15T00:00:13;99863.09;;;6.69;100.00
39793;BME280;26080;42.264;24.536;2023-01-15T00:02:38;99854.59;;;6.63;100.00
39793;BME280;26080;42.264;24.536;2023-01-15T00:05:04;99866.59;;;6.68;100.00
39793;BME280;26080;42.264;24.536;2023-01-15T00:07:30;99872.78;;;6.64;100.00
39793;BME280;26080;42.264;24.536;2023-01-15T00:09:55;99881.41;;;6.66;100.00
39793;BME280;26080;42.264;24.536;2023-01-15T00:12:21;99881.53;;;6.60;100.00
39793;BME280;26080;42.264;24.536;2023-01-15T00:14:47;99846.53;;;6.35;100.00
39793;BME280;26080;42.264;24.536;2023-01-15T00:17:13;99879.88;;;6.56;100.00
39793;BME280;26080;42.264;24.536;2023-01-15T00:19:38;99873.19;;;6.46;100.00
39793;BME280;26080;42.264;24.536;2023-01-15T00:22:04;99874.09;;;6.43;100.00
39793;BME280;26080;42.264;24.536;2023-01-15T00:24:29;99864.59;;;6.41;100.00
39793;BME280;26080;42.264;24.536;2023-01-15T00:27:13;99845.66;;;6.36;100.00
39793;BME280;26080;42.264;24.536;2023-01-15T00:29:58;99839.00;;;6.22;100.00
39793;BME280;26080;42.264;24.536;2023-01-15T00:32:23;99877.66;;;6.39;100.00
39793;BME280;26080;42.264;24.536;2023-01-15T00:34:52;99877.81;;;6.32;100.00
39793;BME280;26080;42.264;24.536;2023-01-15T00:37:17;99868.47;;;6.23;100.00
39793;BME280;26080;42.264;24.536;2023-01-15T00:39:43;99882.47;;;6.17;100.00
39793;BME280;26080;42.264;24.536;2023-01-15T00:42:10;99866.75;;;6.22;100.00
39793;BME280;26080;42.264;24.536;2023-01-15T00:44:35;99869.34;;;6.22;100.00
39793;BME280;26080;42.264;24.536;2023-01-15T00:47:01;99879.75;;;6.22;100.00
39793;BME280;26080;42.264;24.536;2023-01-15T00:49:27;99870.19;;;6.22;100.00
39793;BME280;26080;42.264;24.536;2023-01-15T00:51:52;99867.53;;;6.26;100.00
39793;BME280;26080;42.264;24.536;2023-01-15T00:54:18;99863.03;;;6.34;100.00
39793;BME280;26080;42.264;24.536;2023-01-15T00:56:44;99876.81;;;6.37;100.00
39793;BME280;26080;42.264;24.536;2023-01-15T00:59:10;99874.16;;;6.40;100.00
39793;BME280;26080;42.264;24.536;2023-01-15T01:01:35;99859.66;;;6.29;100.00
39793;BME280;26080;42.264;24.536;2023-01-15T01:04:01;99868.09;;;6.40;100.00
39793;BME280;26080;42.264;24.536;2023-01-15T01:06:26;99866.31;;;6.42;100.00
39793;BME280;26080;42.264;24.536;2023-01-15T01:08:52;99867.25;;;6.39;100.00
39793;BME280;26080;42.264;24.536;2023-01-15T01:11:20;99874.25;;;6.36;100.00
39793;BME280;26080;42.264;24.536;2023-01-15T01:13:48;99867.59;;;6.22;100.00
39793;BME280;26080;42.264;24.536;2023-01-15T01:16:21;99872.66;;;6.29;100.00
39793;BME280;26080;42.264;24.536;2023-01-15T01:18:46;99860.91;;;6.11;100.00
39793;BME280;26080;42.264;24.536;2023-01-15T01:21:12;99859.06;;;6.16;100.00
39793;BME280;26080;42.264;24.536;2023-01-15T01:23:37;99862.47;;;6.19;100.00
39793;BME280;26080;42.264;24.536;2023-01-15T01:26:03;99860.91;;;6.11;100.00
39793;BME280;26080;42.264;24.536;2023-01-15T01:28:28;99857.44;;;6.10;100.00
39793;BME280;26080;42.264;24.536;2023-01-15T01:30:54;99856.56;;;6.11;100.00
39793;BME280;26080;42.264;24.536;2023-01-15T01:33:19;99862.44;;;6.21;100.00
39793;BME280;26080;42.264;24.536;2023-01-15T01:35:48;99857.50;;;6.07;100.00
39793;BME280;26080;42.264;24.536;2023-01-15T01:38:14;99856.69;;;6.05;100.00
39793;BME280;26080;42.264;24.536;2023-01-15T01:40:40;99848.97;;;6.01;100.00
39793;BME280;26080;42.264;24.536;2023-01-15T01:43:20;99853.31;;;6.00;100.00
39793;BME280;26080;42.264;24.536;2023-01-15T01:45:46;99862.69;;;6.09;100.00
39793;BME280;26080;42.264;24.536;2023-01-15T01:48:12;99862.78;;;6.04;100.00
39793;BME280;26080;42.264;24.536;2023-01-15T01:50:41;99858.72;;;5.91;100.00
39793;BME280;26080;42.264;24.536;2023-01-15T01:53:20;99831.53;;;5.59;100.00
39793;BME280;26080;42.264;24.536;2023-01-15T01:55:48;99859.88;;;5.73;100.00
39793;BME280;26080;42.264;24.536;2023-01-15T01:58:14;99850.44;;;5.68;100.00
39793;BME280;26080;42.264;24.536;2023-01-15T02:00:44;99855.41;;;5.80;100.00
39793;BME280;26080;42.264;24.536;2023-01-15T02:03:10;99854.72;;;5.70;100.00
39793;BME280;26080;42.264;24.536;2023-01-15T02:05:38;99855.50;;;5.77;100.00
39793;BME280;26080;42.264;24.536;2023-01-15T02:08:06;99843.41;;;5.73;100.00
39793;BME280;26080;42.264;24.536;2023-01-15T02:10:32;99831.53;;;5.59;100.00
39793;BME280;26080;42.264;24.536;2023-01-15T02:13:03;99850.28;;;5.77;100.00
39793;BME280;26080;42.264;24.536;2023-01-15T02:15:40;99852.22;;;5.65;100.00
39793;BME280;26080;42.264;24.536;2023-01-15T02:18:23;99856.56;;;5.65;100.00
39793;BME280;26080;42.264;24.536;2023-01-15T02:29:10;99842.13;;;5.50;100.00
39793;BME280;26080;42.264;24.536;2023-01-15T02:31:40;99842.34;;;5.38;100.00
39793;BME280;26080;42.264;24.536;2023-01-15T02:34:17;99812.09;;;5.32;100.00
39793;BME280;26080;42.264;24.536;2023-01-15T02:36:53;99841.91;;;5.61;100.00
39793;BME280;26080;42.264;24.536;2023-01-15T02:39:22;99843.47;;;5.70;100.00
39793;BME280;26080;42.264;24.536;2023-01-15T02:41:49;99853.81;;;5.73;100.00
39793;BME280;26080;42.264;24.536;2023-01-15T02:44:18;99846.91;;;5.72;100.00
39793;BME280;26080;42.264;24.536;2023-01-15T02:46:46;99850.53;;;5.61;100.00
39793;BME280;26080;42.264;24.536;2023-01-15T02:49:17;99796.47;;;5.37;100.00
39793;BME280;26080;42.264;24.536;2023-01-15T02:52:04;99841.63;;;5.76;100.00
39793;BME280;26080;42.264;24.536;2023-01-15T02:54:38;99816.00;;;5.56;100.00
39793;BME280;26080;42.264;24.536;2023-01-15T02:57:07;99835.75;;;5.67;100.00
39793;BME280;26080;42.264;24.536;2023-01-15T02:59:44;99841.63;;;5.75;100.00
39793;BME280;26080;42.264;24.536;2023-01-15T03:02:18;99844.19;;;5.78;100.00
39793;BME280;26080;42.264;24.536;2023-01-15T03:07:31;99833.56;;;5.88;100.00
39793;BME280;26080;42.264;24.536;2023-01-15T03:10:01;99845.78;;;5.85;100.00
39793;BME280;26080;42.264;24.536;2023-01-15T03:15:06;99844.28;;;5.73;100.00
39793;BME280;26080;42.264;24.536;2023-01-15T03:17:47;99830.66;;;5.62;100.00
39793;BME280;26080;42.264;24.536;2023-01-15T03:20:22;99847.69;;;5.75;100.00
39793;BME280;26080;42.264;24.536;2023-01-15T03:22:53;99843.25;;;5.82;100.00
39793;BME280;26080;42.264;24.536;2023-01-15T03:25:25;99832.84;;;5.82;100.00
39793;BME280;26080;42.264;24.536;2023-01-15T03:27:53;99812.59;;;5.54;100.00
39793;BME280;26080;42.264;24.536;2023-01-15T03:30:21;99845.72;;;5.89;100.00
39793;BME280;26080;42.264;24.536;2023-01-15T03:32:46;99853.50;;;5.88;100.00
39793;BME280;26080;42.264;24.536;2023-01-15T03:35:51;99847.34;;;5.95;100.00
39793;BME280;26080;42.264;24.536;2023-01-15T03:38:23;99846.59;;;5.87;100.00
39793;BME280;26080;42.264;24.536;2023-01-15T03:41:17;99847.53;;;5.84;100.00
39793;BME280;26080;42.264;24.536;2023-01-15T03:46:43;99844.09;;;5.82;100.00
39793;BME280;26080;42.264;24.536;2023-01-15T03:54:32;99845.13;;;5.74;100.00
39793;BME280;26080;42.264;24.536;2023-01-15T03:57:28;99840.78;;;5.74;100.00
39793;BME280;26080;42.264;24.536;2023-01-15T03:59:55;99848.53;;;5.77;100.00
39793;BME280;26080;42.264;24.536;2023-01-15T04:02:24;99848.50;;;5.79;100.00
39793;BME280;26080;42.264;24.536;2023-01-15T04:04:52;99833.28;;;5.59;100.00
39793;BME280;26080;42.264;24.536;2023-01-15T04:07:18;99846.81;;;5.78;100.00
39793;BME280;26080;42.264;24.536;2023-01-15T04:09:44;99855.59;;;5.71;100.00
39793;BME280;26080;42.264;24.536;2023-01-15T04:12:10;99816.22;;;5.44;100.00
39793;BME280;26080;42.264;24.536;2023-01-15T04:14:36;99857.19;;;5.78;100.00
39793;BME280;26080;42.264;24.536;2023-01-15T04:17:02;99857.13;;;5.81;100.00
39793;BME280;26080;42.264;24.536;2023-01-15T04:19:28;99853.91;;;5.68;100.00
39793;BME280;26080;42.264;24.536;2023-01-15T04:21:53;99831.59;;;5.56;100.00
39793;BME280;26080;42.264;24.536;2023-01-15T04:24:18;99856.38;;;5.76;100.00
39793;BME280;26080;42.264;24.536;2023-01-15T04:26:44;99854.63;;;5.76;100.00
39793;BME280;26080;42.264;24.536;2023-01-15T04:29:09;99865.81;;;5.80;100.00
39793;BME280;26080;42.264;24.536;2023-01-15T04:31:35;99866.63;;;5.82;100.00
39793;BME280;26080;42.264;24.536;2023-01-15T04:34:01;99863.38;;;5.71;100.00
39793;BME280;26080;42.264;24.536;2023-01-15T04:36:27;99869.50;;;5.68;100.00
39793;BME280;26080;42.264;24.536;2023-01-15T04:38:53;99872.00;;;5.73;100.00
39793;BME280;26080;42.264;24.536;2023-01-15T04:41:19;99879.88;;;5.68;100.00
39793;BME280;26080;42.264;24.536;2023-01-15T04:44:03;99875.59;;;5.67;100.00
39793;BME280;26080;42.264;24.536;2023-01-15T04:46:45;99880.81;;;5.65;100.00
39793;BME280;26080;42.264;24.536;2023-01-15T04:49:16;99866.19;;;5.58;100.00
39793;BME280;26080;42.264;24.536;2023-01-15T04:51:43;99887.53;;;5.77;100.00
39793;BME280;26080;42.264;24.536;2023-01-15T04:54:10;99882.38;;;5.76;100.00
39793;BME280;26080;42.264;24.536;2023-01-15T04:56:39;99888.50;;;5.70;100.00
39793;BME280;26080;42.264;24.536;2023-01-15T04:59:05;99891.69;;;5.86;100.00
39793;BME280;26080;42.264;24.536;2023-01-15T05:01:31;99861.63;;;5.71;100.00
39793;BME280;26080;42.264;24.536;2023-01-15T05:03:56;99885.81;;;5.76;100.00
39793;BME280;26080;42.264;24.536;2023-01-15T05:06:23;99893.63;;;5.75;100.00
39793;BME280;26080;42.264;24.536;2023-01-15T05:08:49;99885.84;;;5.73;100.00
39793;BME280;26080;42.264;24.536;2023-01-15T05:11:14;99868.69;;;5.64;100.00
39793;BME280;26080;42.264;24.536;2023-01-15T05:13:40;99880.56;;;5.79;100.00
39793;BME280;26080;42.264;24.536;2023-01-15T05:16:07;99889.22;;;5.80;100.00
39793;BME280;26080;42.264;24.536;2023-01-15T05:18:33;99896.22;;;5.75;100.00
39793;BME280;26080;42.264;24.536;2023-01-15T05:20:58;99894.63;;;5.68;100.00
39793;BME280;26080;42.264;24.536;2023-01-15T05:23:24;99897.97;;;5.76;100.00
39793;BME280;26080;42.264;24.536;2023-01-15T05:25:49;99901.63;;;5.64;100.00
39793;BME280;26080;42.264;24.536;2023-01-15T05:28:14;99878.38;;;5.56;100.00
39793;BME280;26080;42.264;24.536;2023-01-15T05:30:40;99896.50;;;5.59;100.00
39793;BME280;26080;42.264;24.536;2023-01-15T05:33:06;99899.09;;;5.59;100.00
39793;BME280;26080;42.264;24.536;2023-01-15T05:35:31;99890.69;;;5.45;100.00
39793;BME280;26080;42.264;24.536;2023-01-15T05:37:57;99901.00;;;5.50;100.00
39793;BME280;26080;42.264;24.536;2023-01-15T05:40:22;99894.22;;;5.41;100.00
39793;BME280;26080;42.264;24.536;2023-01-15T05:42:48;99889.16;;;5.32;100.00
39793;BME280;26080;42.264;24.536;2023-01-15T05:45:13;99901.19;;;5.39;100.00
39793;BME280;26080;42.264;24.536;2023-01-15T05:47:39;99860.81;;;5.20;100.00
39793;BME280;26080;42.264;24.536;2023-01-15T05:50:04;99896.06;;;5.33;100.00
39793;BME280;26080;42.264;24.536;2023-01-15T05:52:30;99899.56;;;5.32;100.00
39793;BME280;26080;42.264;24.536;2023-01-15T05:54:55;99894.44;;;5.29;100.00
39793;BME280;26080;42.264;24.536;2023-01-15T05:57:20;99887.53;;;5.28;100.00
39793;BME280;26080;42.264;24.536;2023-01-15T05:59:46;99873.94;;;5.12;100.00
39793;BME280;26080;42.264;24.536;2023-01-15T06:02:14;99890.09;;;5.29;100.00
39793;BME280;26080;42.264;24.536;2023-01-15T06:04:40;99888.34;;;5.30;100.00
39793;BME280;26080;42.264;24.536;2023-01-15T06:07:05;99885.88;;;5.22;100.00
39793;BME280;26080;42.264;24.536;2023-01-15T06:09:31;99892.78;;;5.25;100.00
39793;BME280;26080;42.264;24.536;2023-01-15T06:11:56;99872.19;;;5.13;100.00
39793;BME280;26080;42.264;24.536;2023-01-15T06:14:22;99899.69;;;5.24;100.00
39793;BME280;26080;42.264;24.536;2023-01-15T06:16:47;99896.31;;;5.21;100.00
39793;BME280;26080;42.264;24.536;2023-01-15T06:19:13;99850.03;;;4.90;100.00
39793;BME280;26080;42.264;24.536;2023-01-15T06:21:39;99892.00;;;5.18;100.00
39793;BME280;26080;42.264;24.536;2023-01-15T06:24:05;99892.84;;;5.19;100.00
39793;BME280;26080;42.264;24.536;2023-01-15T06:26:30;99896.31;;;5.21;100.00
39793;BME280;26080;42.264;24.536;2023-01-15T06:28:56;99893.72;;;5.19;100.00
39793;BME280;26080;42.264;24.536;2023-01-15T06:31:23;99906.53;;;5.30;100.00
39793;BME280;26080;42.264;24.536;2023-01-15T06:33:50;99897.94;;;5.26;100.00
39793;BME280;26080;42.264;24.536;2023-01-15T06:36:19;99896.13;;;5.30;100.00
39793;BME280;26080;42.264;24.536;2023-01-15T06:38:48;99899.56;;;5.32;100.00
39793;BME280;26080;42.264;24.536;2023-01-15T06:41:19;99904.75;;;5.32;100.00
39793;BME280;26080;42.264;24.536;2023-01-15T06:44:04;99909.94;;;5.35;100.00
39793;BME280;26080;42.264;24.536;2023-01-15T06:46:49;99905.63;;;5.31;100.00
39793;BME280;26080;42.264;24.536;2023-01-15T06:49:35;99906.47;;;5.33;100.00
39793;BME280;26080;42.264;24.536;2023-01-15T06:52:01;99903.97;;;5.28;100.00
39793;BME280;26080;42.264;24.536;2023-01-15T06:54:28;99907.41;;;5.29;100.00
39793;BME280;26080;42.264;24.536;2023-01-15T06:56:53;99911.72;;;5.30;100.00
39793;BME280;26080;42.264;24.536;2023-01-15T06:59:19;99911.56;;;5.39;100.00
39793;BME280;26080;42.264;24.536;2023-01-15T07:01:45;99910.84;;;5.31;100.00
39793;BME280;26080;42.264;24.536;2023-01-15T07:04:10;99921.16;;;5.35;100.00
39793;BME280;26080;42.264;24.536;2023-01-15T07:06:36;99921.25;;;5.29;100.00
39793;BME280;26080;42.264;24.536;2023-01-15T07:09:02;99922.06;;;5.33;100.00
39793;BME280;26080;42.264;24.536;2023-01-15T07:11:28;99902.19;;;5.30;100.00
39793;BME280;26080;42.264;24.536;2023-01-15T07:13:53;99902.34;;;5.21;100.00
39793;BME280;26080;42.264;24.536;2023-01-15T07:16:31;99903.25;;;5.17;100.00
39793;BME280;26080;42.264;24.536;2023-01-15T07:18:57;99923.88;;;5.28;100.00
39793;BME280;26080;42.264;24.536;2023-01-15T07:21:23;99905.81;;;5.20;100.00
39793;BME280;26080;42.264;24.536;2023-01-15T07:23:48;99925.44;;;5.38;100.00
39793;BME280;26080;42.264;24.536;2023-01-15T07:26:14;99929.72;;;5.42;100.00
39793;BME280;26080;42.264;24.536;2023-01-15T07:28:40;99925.34;;;5.44;100.00
39793;BME280;26080;42.264;24.536;2023-01-15T07:31:06;99926.13;;;5.49;100.00
39793;BME280;26080;42.264;24.536;2023-01-15T07:33:31;99928.75;;;5.46;100.00
39793;BME280;26080;42.264;24.536;2023-01-15T07:35:56;99904.53;;;5.46;100.00
39793;BME280;26080;42.264;24.536;2023-01-15T07:38:22;99935.25;;;5.72;100.00
39793;BME280;26080;42.264;24.536;2023-01-15T07:40:48;99933.63;;;5.68;100.00
39793;BME280;26080;42.264;24.536;2023-01-15T07:43:33;99911.19;;;5.62;100.00
39793;BME280;26080;42.264;24.536;2023-01-15T07:46:18;99933.41;;;5.80;100.00
39793;BME280;26080;42.264;24.536;2023-01-15T07:49:02;99935.00;;;5.87;100.00
39793;BME280;26080;42.264;24.536;2023-01-15T07:51:49;99942.75;;;5.88;100.00
39793;BME280;26080;42.264;24.536;2023-01-15T07:57:42;99936.88;;;5.79;100.00
39793;BME280;26080;42.264;24.536;2023-01-15T08:00:14;99935.84;;;5.87;100.00
39793;BME280;26080;42.264;24.536;2023-01-15T08:02:40;99921.28;;;5.79;100.00
39793;BME280;26080;42.264;24.536;2023-01-15T08:05:07;99936.81;;;5.82;100.00
39793;BME280;26080;42.264;24.536;2023-01-15T08:07:38;99929.00;;;5.83;100.00
39793;BME280;26080;42.264;24.536;2023-01-15T08:10:03;99923.78;;;5.83;100.00
39793;BME280;26080;42.264;24.536;2023-01-15T08:12:29;99947.72;;;6.04;100.00
39793;BME280;26080;42.264;24.536;2023-01-15T08:15:12;99940.91;;;5.97;100.00
39793;BME280;26080;42.264;24.536;2023-01-15T08:17:43;99943.63;;;5.92;100.00
39793;BME280;26080;42.264;24.536;2023-01-15T08:20:15;99946.91;;;6.00;100.00
39793;BME280;26080;42.264;24.536;2023-01-15T08:22:41;99939.91;;;6.05;100.00
39793;BME280;26080;42.264;24.536;2023-01-15T08:25:16;99938.16;;;6.06;100.00
39793;BME280;26080;42.264;24.536;2023-01-15T08:27:42;99939.66;;;6.17;100.00
39793;BME280;26080;42.264;24.536;2023-01-15T08:30:11;99944.88;;;6.16;100.00
39793;BME280;26080;42.264;24.536;2023-01-15T08:32:37;99949.16;;;6.20;100.00
39793;BME280;26080;42.264;24.536;2023-01-15T08:35:02;99943.03;;;6.22;100.00
39793;BME280;26080;42.264;24.536;2023-01-15T08:37:28;99940.28;;;6.29;100.00
39793;BME280;26080;42.264;24.536;2023-01-15T08:39:53;99918.91;;;6.14;100.00
39793;BME280;26080;42.264;24.536;2023-01-15T08:42:19;99931.81;;;6.20;100.00
39793;BME280;26080;42.264;24.536;2023-01-15T08:44:45;99937.91;;;6.19;100.00
39793;BME280;26080;42.264;24.536;2023-01-15T08:47:11;99934.41;;;6.20;100.00
39793;BME280;26080;42.264;24.536;2023-01-15T08:49:40;99943.81;;;6.26;100.00
39793;BME280;26080;42.264;24.536;2023-01-15T08:52:05;99938.38;;;6.38;100.00
39793;BME280;26080;42.264;24.536;2023-01-15T08:54:31;99943.38;;;6.49;100.00
39793;BME280;26080;42.264;24.536;2023-01-15T08:56:58;99938.97;;;6.51;100.00
39793;BME280;26080;42.264;24.536;2023-01-15T08:59:23;99939.59;;;6.64;100.00
39793;BME280;26080;42.264;24.536;2023-01-15T09:01:49;99937.03;;;6.62;100.00
39793;BME280;26080;42.264;24.536;2023-01-15T09:04:15;99937.91;;;6.61;100.00
39793;BME280;26080;42.264;24.536;2023-01-15T09:06:42;99920.81;;;6.49;100.00
39793;BME280;26080;42.264;24.536;2023-01-15T09:09:07;99909.44;;;6.53;100.00
39793;BME280;26080;42.264;24.536;2023-01-15T09:11:33;99917.31;;;6.50;100.00
39793;BME280;26080;42.264;24.536;2023-01-15T09:13:58;99937.84;;;6.64;100.00
39793;BME280;26080;42.264;24.536;2023-01-15T09:16:24;99906.16;;;6.44;100.00
39793;BME280;26080;42.264;24.536;2023-01-15T09:18:52;99906.75;;;6.57;100.00
39793;BME280;26080;42.264;24.536;2023-01-15T09:21:18;99927.28;;;6.72;100.00
39793;BME280;26080;42.264;24.536;2023-01-15T09:23:43;99922.03;;;6.73;100.00
39793;BME280;26080;42.264;24.536;2023-01-15T09:26:33;99912.56;;;6.69;100.00
39793;BME280;26080;42.264;24.536;2023-01-15T09:28:59;99920.63;;;6.57;100.00
39793;BME280;26080;42.264;24.536;2023-01-15T09:31:24;99915.56;;;6.51;100.00
39793;BME280;26080;42.264;24.536;2023-01-15T09:33:51;99883.84;;;6.34;100.00
39793;BME280;26080;42.264;24.536;2023-01-15T09:36:19;99895.00;;;6.39;100.00
39793;BME280;26080;42.264;24.536;2023-01-15T09:38:48;99907.56;;;6.60;100.00
39793;BME280;26080;42.264;24.536;2023-01-15T09:41:14;99909.34;;;6.58;100.00
39793;BME280;26080;42.264;24.536;2023-01-15T09:46:59;99900.09;;;6.43;100.00
39793;BME280;26080;42.264;24.536;2023-01-15T09:49:37;99905.25;;;6.46;100.00
39793;BME280;26080;42.264;24.536;2023-01-15T09:57:34;99871.31;;;6.51;100.00
39793;BME280;26080;42.264;24.536;2023-01-15T10:00:03;99882.28;;;6.65;100.00
39793;BME280;26080;42.264;24.536;2023-01-15T10:02:53;99857.44;;;6.52;100.00
39793;BME280;26080;42.264;24.536;2023-01-15T10:05:39;99876.47;;;6.54;100.00
39793;BME280;26080;42.264;24.536;2023-01-15T10:10:47;99862.56;;;6.55;100.00
39793;BME280;26080;42.264;24.536;2023-01-15T10:16:25;99862.81;;;6.43;100.00
39793;BME280;26080;42.264;24.536;2023-01-15T10:18:53;99864.53;;;6.44;100.00
39793;BME280;26080;42.264;24.536;2023-01-15T10:24:17;99855.31;;;6.31;100.00
39793;BME280;26080;42.264;24.536;2023-01-15T10:29:42;99844.69;;;6.40;100.00
39793;BME280;26080;42.264;24.536;2023-01-15T10:45:48;99822.16;;;6.39;100.00
39793;BME280;26080;42.264;24.536;2023-01-15T10:48:30;99811.00;;;6.34;100.00
39793;BME280;26080;42.264;24.536;2023-01-15T10:51:01;99807.59;;;6.32;100.00
39793;BME280;26080;42.264;24.536;2023-01-15T10:53:42;99802.16;;;6.41;100.00
39793;BME280;26080;42.264;24.536;2023-01-15T11:01:52;99801.97;;;6.50;100.00
39793;BME280;26080;42.264;24.536;2023-01-15T11:04:18;99773.66;;;6.36;100.00
39793;BME280;26080;42.264;24.536;2023-01-15T11:06:44;99791.34;;;6.59;100.00
39793;BME280;26080;42.264;24.536;2023-01-15T11:09:23;99791.16;;;6.67;100.00
39793;BME280;26080;42.264;24.536;2023-01-15T11:14:42;99774.47;;;6.75;100.00
39793;BME280;26080;42.264;24.536;2023-01-15T11:17:42;99776.84;;;6.84;100.00
39793;BME280;26080;42.264;24.536;2023-01-15T11:20:43;99778.28;;;6.96;100.00
39793;BME280;26080;42.264;24.536;2023-01-15T11:23:11;99775.59;;;7.01;100.00
39793;BME280;26080;42.264;24.536;2023-01-15T11:25:46;99772.03;;;7.03;100.00
39793;BME280;26080;42.264;24.536;2023-01-15T11:28:12;99762.25;;;7.13;100.00
39793;BME280;26080;42.264;24.536;2023-01-15T11:30:40;99761.53;;;7.06;100.00
39793;BME280;26080;42.264;24.536;2023-01-15T11:33:21;99759.75;;;7.08;100.00
39793;BME280;26080;42.264;24.536;2023-01-15T11:35:51;99756.28;;;7.08;100.00
39793;BME280;26080;42.264;24.536;2023-01-15T11:38:23;99764.72;;;7.18;100.00
39793;BME280;26080;42.264;24.536;2023-01-15T11:41:00;99766.31;;;7.23;100.00
39793;BME280;26080;42.264;24.536;2023-01-15T11:43:29;99757.53;;;7.27;100.00
39793;BME280;26080;42.264;24.536;2023-01-15T11:46:31;99752.19;;;7.32;100.00
39793;BME280;26080;42.264;24.536;2023-01-15T11:49:18;99741.91;;;7.27;100.00
39793;BME280;26080;42.264;24.536;2023-01-15T11:52:21;99746.28;;;7.25;100.00
39793;BME280;26080;42.264;24.536;2023-01-15T11:54:51;99740.25;;;7.23;100.00
39793;BME280;26080;42.264;24.536;2023-01-15T11:57:31;99738.41;;;7.28;100.00
39793;BME280;26080;42.264;24.536;2023-01-15T11:59:58;99726.38;;;7.23;100.00
39793;BME280;26080;42.264;24.536;2023-01-15T12:05:19;99728.97;;;7.23;100.00
39793;BME280;26080;42.264;24.536;2023-01-15T12:07:57;99720.16;;;7.28;100.00
39793;BME280;26080;42.264;24.536;2023-01-15T12:10:32;99721.00;;;7.29;100.00
39793;BME280;26080;42.264;24.536;2023-01-15T12:13:43;99721.34;;;7.48;100.00
39793;BME280;26080;42.264;24.536;2023-01-15T12:29:38;99691.88;;;7.15;100.00
39793;BME280;26080;42.264;24.536;2023-01-15T12:32:10;99692.28;;;6.99;100.00
39793;BME280;26080;42.264;24.536;2023-01-15T12:34:42;99694.69;;;7.07;100.00
39793;BME280;26080;42.264;24.536;2023-01-15T12:37:13;99692.16;;;7.04;100.00
39793;BME280;26080;42.264;24.536;2023-01-15T12:42:31;99679.56;;;6.89;100.00
39793;BME280;26080;42.264;24.536;2023-01-15T12:45:27;99687.19;;;6.95;100.00
39793;BME280;26080;42.264;24.536;2023-01-15T12:48:28;99698.50;;;6.94;100.00
39793;BME280;26080;42.264;24.536;2023-01-15T12:51:00;99689.47;;;7.07;100.00
39793;BME280;26080;42.264;24.536;2023-01-15T12:53:40;99687.63;;;7.10;100.00
39793;BME280;26080;42.264;24.536;2023-01-15T12:56:22;99691.56;;;7.27;100.00
39793;BME280;26080;42.264;24.536;2023-01-15T12:58:54;99652.34;;;7.00;100.00
39793;BME280;26080;42.264;24.536;2023-01-15T13:05:02;99688.19;;;7.22;100.00
39793;BME280;26080;42.264;24.536;2023-01-15T13:07:40;99657.97;;;7.16;100.00
39793;BME280;26080;42.264;24.536;2023-01-15T13:12:37;99695.81;;;7.29;100.00
39793;BME280;26080;42.264;24.536;2023-01-15T13:15:03;99666.88;;;7.07;100.00
39793;BME280;26080;42.264;24.536;2023-01-15T13:23:22;99660.03;;;6.71;100.00
39793;BME280;26080;42.264;24.536;2023-01-15T13:34:01;99685.03;;;6.78;100.00
39793;BME280;26080;42.264;24.536;2023-01-15T13:36:34;99684.91;;;6.82;100.00
39793;BME280;26080;42.264;24.536;2023-01-15T13:39:06;99690.81;;;6.89;100.00
39793;BME280;26080;42.264;24.536;2023-01-15T13:41:35;99677.75;;;6.91;100.00
39793;BME280;26080;42.264;24.536;2023-01-15T13:44:20;99683.63;;;6.97;100.00
39793;BME280;26080;42.264;24.536;2023-01-15T13:46:58;99663.03;;;6.90;100.00
39793;BME280;26080;42.264;24.536;2023-01-15T13:49:30;99633.16;;;6.70;100.00
39793;BME280;26080;42.264;24.536;2023-01-15T13:51:58;99679.47;;;6.92;100.00
39793;BME280;26080;42.264;24.536;2023-01-15T13:54:29;99653.66;;;6.82;100.00
39793;BME280;26080;42.264;24.536;2023-01-15T13:57:22;99673.41;;;6.91;100.00
39793;BME280;26080;42.264;24.536;2023-01-15T13:59:47;99671.00;;;6.83;100.00
39793;BME280;26080;42.264;24.536;2023-01-15T14:02:36;99675.06;;;6.94;100.00
39793;BME280;26080;42.264;24.536;2023-01-15T14:05:28;99670.72;;;6.94;100.00
39793;BME280;26080;42.264;24.536;2023-01-15T14:07:54;99667.09;;;7.00;100.00
39793;BME280;26080;42.264;24.536;2023-01-15T14:10:24;99666.16;;;7.02;100.00
39793;BME280;26080;42.264;24.536;2023-01-15T14:18:43;99672.31;;;7.00;100.00
39793;BME280;26080;42.264;24.536;2023-01-15T14:21:46;99661.50;;;6.81;100.00
39793;BME280;26080;42.264;24.536;2023-01-15T14:30:28;99657.81;;;6.90;100.00
39793;BME280;26080;42.264;24.536;2023-01-15T14:35:46;99636.38;;;6.80;100.00
39793;BME280;26080;42.264;24.536;2023-01-15T14:38:18;99660.88;;;6.71;100.00
39793;BME280;26080;42.264;24.536;2023-01-15T14:40:56;99659.75;;;6.81;100.00
39793;BME280;26080;42.264;24.536;2023-01-15T14:43:28;99666.00;;;6.76;100.00
39793;BME280;26080;42.264;24.536;2023-01-15T14:48:52;99653.75;;;6.79;100.00
39793;BME280;26080;42.264;24.536;2023-01-15T14:51:28;99664.00;;;6.86;100.00
39793;BME280;26080;42.264;24.536;2023-01-15T14:54:02;99662.38;;;6.81;100.00
39793;BME280;26080;42.264;24.536;2023-01-15T14:56:31;99658.81;;;6.84;100.00
39793;BME280;26080;42.264;24.536;2023-01-15T15:01:57;99659.72;;;6.83;100.00
39793;BME280;26080;42.264;24.536;2023-01-15T15:04:38;99665.00;;;6.80;100.00
39793;BME280;26080;42.264;24.536;2023-01-15T15:07:13;99663.44;;;6.74;100.00
39793;BME280;26080;42.264;24.536;2023-01-15T15:12:41;99631.94;;;6.51;100.00
39793;BME280;26080;42.264;24.536;2023-01-15T15:18:01;99665.53;;;6.60;100.00
39793;BME280;26080;42.264;24.536;2023-01-15T15:23:17;99642.72;;;6.36;100.00